Time;durP1;ratioP1;P1;durP2;ratioP2;P2;SDS_P1;SDS_P2;PMS_P1;PMS_P2;Temp;Humidity;BMP_temperature;BMP_pressure;BME280_temperature;BME280_humidity;BME280_pressure;Samples;Min_cycle;Max_cycle;Signal;HPM_P1;HPM_P2
2023/10/22 00:03:40;;;;;;;9.85;2.63;;;;;;;;;;5107733;23;20280;-56
2023/10/22 00:06:05;;;;;;;7.80;2.60;;;;;;;;;;4978526;28;20418;-56
2023/10/22 00:08:31;;;;;;;7.53;2.30;;;;;;;;;;4982618;28;20099;-56
2023/10/22 00:10:56;;;;;;;5.87;2.47;;;;;;;;;;5031574;23;20374;-62
2023/10/22 00:13:21;;;;;;;9.20;2.67;;;;;;;;;;5004545;28;20287;-62
2023/10/22 00:15:47;;;;;;;6.30;2.40;;;;;;;;;;5014380;28;20072;-60
2023/10/22 00:18:12;;;;;;;8.13;2.63;;;;;;;;;;5023262;28;20810;-59
2023/10/22 00:20:38;;;;;;;9.35;2.70;;;;;;;;;;5021342;28;20280;-59
2023/10/22 00:23:03;;;;;;;6.53;2.20;;;;;;;;;;5012398;28;20489;-59
2023/10/22 00:25:28;;;;;;;9.52;2.30;;;;;;;;;;5012562;28;20036;-60
2023/10/22 00:27:55;;;;;;;8.47;1.93;;;;;;;;;;5013523;28;20014;-60
2023/10/22 00:30:20;;;;;;;8.88;2.03;;;;;;;;;;5007349;28;20261;-59
2023/10/22 00:32:46;;;;;;;8.98;2.33;;;;;;;;;;5025507;28;20481;-59
2023/10/22 00:35:12;;;;;;;7.20;2.17;;;;;;;;;;5013581;28;20148;-60
2023/10/22 00:37:37;;;;;;;6.38;2.00;;;;;;;;;;5025480;28;20405;-60
2023/10/22 00:40:03;;;;;;;8.23;2.28;;;;;;;;;;5024475;28;20021;-60
2023/10/22 00:42:28;;;;;;;6.65;1.98;;;;;;;;;;5024340;28;20021;-60
2023/10/22 00:44:54;;;;;;;6.47;2.30;;;;;;;;;;5030701;28;20018;-60
2023/10/22 00:47:19;;;;;;;5.93;2.30;;;;;;;;;;5022712;28;21163;-60
2023/10/22 00:49:44;;;;;;;7.47;2.07;;;;;;;;;;5023607;28;20437;-60
2023/10/22 00:52:10;;;;;;;9.38;2.30;;;;;;;;;;5020181;28;20386;-60
2023/10/22 00:54:35;;;;;;;11.27;2.15;;;;;;;;;;5017070;28;20025;-60
2023/10/22 00:57:00;;;;;;;4.93;1.85;;;;;;;;;;5018459;28;20049;-60
2023/10/22 00:59:26;;;;;;;7.35;1.83;;;;;;;;;;5027865;28;20021;-60
2023/10/22 01:01:51;;;;;;;6.47;1.90;;;;;;;;;;5027451;28;20068;-61
2023/10/22 01:04:16;;;;;;;8.10;2.07;;;;;;;;;;5022221;28;20026;-61
2023/10/22 01:06:42;;;;;;;3.97;1.85;;;;;;;;;;5016554;28;20854;-61
2023/10/22 01:09:09;;;;;;;6.93;1.90;;;;;;;;;;5026685;28;20021;-61
2023/10/22 01:11:37;;;;;;;5.63;2.00;;;;;;;;;;5027571;28;20119;-61
2023/10/22 01:14:03;;;;;;;6.75;2.10;;;;;;;;;;5010671;28;20025;-61
2023/10/22 01:16:28;;;;;;;6.75;2.15;;;;;;;;;;5033448;28;20490;-61
2023/10/22 01:18:53;;;;;;;5.45;2.08;;;;;;;;;;5020680;28;20025;-61
2023/10/22 01:21:19;;;;;;;6.78;1.65;;;;;;;;;;5043157;28;20415;-61
2023/10/22 01:23:44;;;;;;;5.38;2.00;;;;;;;;;;5010394;28;20072;-61
2023/10/22 01:26:09;;;;;;;7.03;2.53;;;;;;;;;;5011901;28;20034;-61
2023/10/22 01:28:35;;;;;;;6.68;1.83;;;;;;;;;;5027051;28;20067;-61
2023/10/22 01:31:00;;;;;;;7.55;1.88;;;;;;;;;;5025863;28;20100;-61
2023/10/22 01:33:26;;;;;;;9.10;2.25;;;;;;;;;;5026693;28;20021;-61
2023/10/22 01:35:51;;;;;;;8.25;1.90;;;;;;;;;;5040201;28;20041;-61
2023/10/22 01:38:16;;;;;;;6.97;1.88;;;;;;;;;;5027684;28;20037;-61
2023/10/22 01:40:42;;;;;;;6.25;1.90;;;;;;;;;;5016623;28;20076;-61
2023/10/22 01:43:07;;;;;;;10.35;2.10;;;;;;;;;;5011239;28;20042;-61
2023/10/22 01:45:32;;;;;;;6.10;1.60;;;;;;;;;;5026235;28;20030;-61
2023/10/22 01:47:58;;;;;;;6.17;2.00;;;;;;;;;;5025734;28;20034;-61
2023/10/22 01:50:23;;;;;;;9.45;1.98;;;;;;;;;;5027380;28;20291;-61
2023/10/22 01:52:49;;;;;;;5.00;1.70;;;;;;;;;;5027182;28;20172;-61
2023/10/22 01:55:14;;;;;;;6.40;1.98;;;;;;;;;;5020976;28;20578;-61
2023/10/22 01:57:40;;;;;;;7.97;2.30;;;;;;;;;;5016265;28;20037;-61
2023/10/22 02:00:05;;;;;;;6.28;1.90;;;;;;;;;;5013383;28;20826;-61
2023/10/22 02:02:31;;;;;;;7.55;1.90;;;;;;;;;;5026793;28;20189;-61
2023/10/22 02:04:56;;;;;;;8.85;2.10;;;;;;;;;;5026019;28;20033;-62
2023/10/22 02:07:21;;;;;;;5.85;1.98;;;;;;;;;;5007935;28;20036;-61
2023/10/22 02:09:47;;;;;;;5.10;2.15;;;;;;;;;;5006921;28;20045;-61
2023/10/22 02:12:12;;;;;;;6.57;2.07;;;;;;;;;;5028016;28;20033;-61
2023/10/22 02:14:37;;;;;;;7.68;1.85;;;;;;;;;;5027942;28;20307;-60
2023/10/22 02:17:03;;;;;;;7.60;2.57;;;;;;;;;;5025023;28;20045;-61
2023/10/22 02:19:28;;;;;;;6.90;2.20;;;;;;;;;;5025941;28;20298;-61
2023/10/22 02:21:53;;;;;;;7.00;2.13;;;;;;;;;;5026747;28;20117;-61
2023/10/22 02:24:19;;;;;;;6.30;2.10;;;;;;;;;;5025848;28;20300;-61
2023/10/22 02:26:44;;;;;;;7.18;2.00;;;;;;;;;;5024926;28;20046;-61
2023/10/22 02:29:10;;;;;;;8.63;1.88;;;;;;;;;;5026642;28;20156;-61
2023/10/22 02:31:35;;;;;;;7.00;2.17;;;;;;;;;;5027056;28;20479;-61
2023/10/22 02:34:01;;;;;;;8.75;1.88;;;;;;;;;;5025834;28;20276;-61
2023/10/22 02:36:26;;;;;;;7.35;2.20;;;;;;;;;;5025912;28;20064;-61
2023/10/22 02:38:52;;;;;;;7.78;1.83;;;;;;;;;;5025002;28;20030;-61
2023/10/22 02:41:17;;;;;;;8.60;2.38;;;;;;;;;;5009226;28;20120;-61
2023/10/22 02:43:43;;;;;;;6.53;2.00;;;;;;;;;;5024910;28;20068;-61
2023/10/22 02:46:08;;;;;;;8.07;1.80;;;;;;;;;;5014677;28;20196;-61
2023/10/22 02:48:33;;;;;;;6.53;2.05;;;;;;;;;;5010095;28;20049;-61
2023/10/22 02:51:01;;;;;;;8.90;2.13;;;;;;;;;;5024422;28;20033;-61
2023/10/22 02:53:28;;;;;;;6.68;1.80;;;;;;;;;;5027096;28;20311;-61
2023/10/22 02:56:00;;;;;;;6.88;1.90;;;;;;;;;;5026785;28;20534;-61
2023/10/22 02:58:26;;;;;;;5.10;2.10;;;;;;;;;;5024106;28;20037;-61
2023/10/22 03:00:51;;;;;;;7.68;2.15;;;;;;;;;;5024070;28;20045;-61
2023/10/22 03:03:16;;;;;;;6.27;2.17;;;;;;;;;;5026337;28;20100;-61
2023/10/22 03:05:41;;;;;;;7.35;2.35;;;;;;;;;;5024892;28;20291;-61
2023/10/22 03:08:07;;;;;;;7.45;2.15;;;;;;;;;;5025715;28;20568;-61
2023/10/22 03:10:36;;;;;;;10.07;2.55;;;;;;;;;;5024003;28;20171;-61
2023/10/22 03:13:02;;;;;;;7.95;2.33;;;;;;;;;;5025840;28;20048;-61
2023/10/22 03:15:27;;;;;;;8.77;1.83;;;;;;;;;;5026540;28;20045;-61
2023/10/22 03:17:53;;;;;;;5.93;2.00;;;;;;;;;;5023561;28;20041;-61
2023/10/22 03:20:19;;;;;;;7.97;2.15;;;;;;;;;;5014356;28;20029;-61
2023/10/22 03:22:44;;;;;;;8.50;2.10;;;;;;;;;;5026671;28;20098;-61
2023/10/22 03:25:10;;;;;;;7.55;2.10;;;;;;;;;;5024671;28;20048;-61
2023/10/22 03:27:35;;;;;;;4.75;1.70;;;;;;;;;;5006350;28;20030;-61
2023/10/22 03:30:00;;;;;;;8.03;2.30;;;;;;;;;;5021962;28;20723;-61
2023/10/22 03:32:25;;;;;;;6.72;2.03;;;;;;;;;;5025438;28;20287;-61
2023/10/22 03:34:51;;;;;;;7.25;2.08;;;;;;;;;;5040072;28;20041;-61
2023/10/22 03:37:17;;;;;;;6.90;1.97;;;;;;;;;;5025279;28;20633;-61
2023/10/22 03:39:42;;;;;;;9.70;2.40;;;;;;;;;;5026188;28;20283;-61
2023/10/22 03:42:08;;;;;;;9.15;2.00;;;;;;;;;;5023429;28;20469;-61
2023/10/22 03:44:33;;;;;;;8.20;2.53;;;;;;;;;;5024040;28;20025;-61
2023/10/22 03:46:59;;;;;;;6.55;2.83;;;;;;;;;;5017439;28;20065;-61
2023/10/22 03:49:24;;;;;;;6.80;2.15;;;;;;;;;;5025077;28;20543;-61
2023/10/22 03:51:49;;;;;;;7.90;2.17;;;;;;;;;;5020421;28;20080;-61
2023/10/22 03:54:15;;;;;;;9.35;2.30;;;;;;;;;;5025554;28;20048;-61
2023/10/22 03:56:40;;;;;;;6.53;2.38;;;;;;;;;;5023317;28;20045;-61
2023/10/22 03:59:05;;;;;;;6.28;2.13;;;;;;;;;;5025543;28;20073;-61
2023/10/22 04:01:30;;;;;;;6.95;2.00;;;;;;;;;;5015029;28;20021;-61
2023/10/22 04:03:56;;;;;;;8.07;1.92;;;;;;;;;;5023202;28;20559;-61
2023/10/22 04:06:21;;;;;;;7.18;2.20;;;;;;;;;;5023759;28;20072;-61
2023/10/22 04:08:46;;;;;;;4.78;1.90;;;;;;;;;;5024841;28;20128;-61
2023/10/22 04:11:12;;;;;;;9.48;2.85;;;;;;;;;;5024690;28;20413;-61
2023/10/22 04:13:37;;;;;;;8.38;1.75;;;;;;;;;;5040302;28;20607;-61
2023/10/22 04:16:02;;;;;;;7.00;2.25;;;;;;;;;;5025469;28;20072;-61
2023/10/22 04:18:28;;;;;;;8.93;2.13;;;;;;;;;;5023427;28;20025;-61
2023/10/22 04:20:53;;;;;;;4.88;1.83;;;;;;;;;;5007343;28;20798;-60
2023/10/22 04:23:19;;;;;;;7.60;2.20;;;;;;;;;;5020334;28;20038;-61
2023/10/22 04:25:45;;;;;;;8.80;2.60;;;;;;;;;;5017294;28;20069;-61
2023/10/22 04:28:11;;;;;;;7.68;2.40;;;;;;;;;;5004500;28;20076;-61
2023/10/22 04:30:36;;;;;;;6.00;2.20;;;;;;;;;;5032499;28;20117;-61
2023/10/22 04:33:02;;;;;;;8.43;2.47;;;;;;;;;;5038914;28;20033;-61
2023/10/22 04:35:28;;;;;;;8.90;2.15;;;;;;;;;;5020879;28;20034;-61
2023/10/22 04:37:54;;;;;;;8.10;2.30;;;;;;;;;;5016975;28;20025;-60
2023/10/22 04:40:19;;;;;;;5.40;2.10;;;;;;;;;;5018922;28;20046;-59
2023/10/22 04:42:44;;;;;;;7.53;2.30;;;;;;;;;;5014570;28;20042;-60
2023/10/22 04:45:10;;;;;;;5.80;2.37;;;;;;;;;;5014485;28;20034;-61
2023/10/22 04:47:35;;;;;;;7.00;2.45;;;;;;;;;;5020814;28;20316;-59
2023/10/22 04:50:01;;;;;;;7.00;2.60;;;;;;;;;;5017582;28;20120;-60
2023/10/22 04:52:33;;;;;;;8.13;2.20;;;;;;;;;;5015535;28;20280;-60
2023/10/22 04:54:59;;;;;;;7.60;2.28;;;;;;;;;;5020131;28;20045;-60
2023/10/22 04:57:24;;;;;;;7.35;2.28;;;;;;;;;;5033787;28;20046;-60
2023/10/22 04:59:50;;;;;;;5.82;1.92;;;;;;;;;;5027251;28;20166;-60
2023/10/22 05:02:15;;;;;;;7.47;2.20;;;;;;;;;;5015486;28;20049;-61
2023/10/22 05:04:40;;;;;;;7.22;2.17;;;;;;;;;;5016430;28;20947;-61
2023/10/22 05:07:06;;;;;;;9.10;2.08;;;;;;;;;;5016775;28;20083;-60
2023/10/22 05:09:33;;;;;;;5.32;1.90;;;;;;;;;;5021485;28;20049;-60
2023/10/22 05:11:58;;;;;;;5.97;2.25;;;;;;;;;;5014772;28;20210;-60
2023/10/22 05:14:24;;;;;;;9.68;2.03;;;;;;;;;;5015237;28;20105;-60
2023/10/22 05:16:51;;;;;;;5.05;1.95;;;;;;;;;;5013995;28;20053;-60
2023/10/22 05:19:17;;;;;;;6.63;2.50;;;;;;;;;;5010299;28;20462;-60
2023/10/22 05:21:45;;;;;;;5.87;1.97;;;;;;;;;;5010370;28;20057;-60
2023/10/22 05:24:11;;;;;;;5.88;2.40;;;;;;;;;;5011664;28;20305;-60
2023/10/22 05:26:37;;;;;;;7.57;2.47;;;;;;;;;;5012791;28;21623;-60
2023/10/22 05:29:02;;;;;;;8.65;2.25;;;;;;;;;;5039819;23;20442;-61
2023/10/22 05:31:27;;;;;;;7.10;2.58;;;;;;;;;;5013119;28;20022;-61
2023/10/22 05:33:53;;;;;;;12.82;3.17;;;;;;;;;;5004132;28;20026;-61
2023/10/22 05:36:19;;;;;;;9.48;2.85;;;;;;;;;;5003335;28;20057;-61
2023/10/22 05:38:44;;;;;;;8.45;2.92;;;;;;;;;;4996843;28;20096;-62
2023/10/22 05:41:21;;;;;;;8.45;2.70;;;;;;;;;;5000039;28;20050;-62
2023/10/22 05:43:46;;;;;;;8.10;2.70;;;;;;;;;;5004727;28;20034;-61
2023/10/22 05:46:12;;;;;;;8.05;2.83;;;;;;;;;;5004301;28;20706;-60
2023/10/22 05:48:37;;;;;;;6.50;3.00;;;;;;;;;;5006127;28;20510;-60
2023/10/22 05:51:02;;;;;;;6.75;2.50;;;;;;;;;;5004597;28;20530;-61
2023/10/22 05:53:28;;;;;;;9.50;2.88;;;;;;;;;;5007605;28;20058;-59
2023/10/22 05:55:57;;;;;;;7.75;2.85;;;;;;;;;;5008081;28;20054;-58
2023/10/22 05:58:23;;;;;;;12.27;2.85;;;;;;;;;;5004385;28;20385;-60
2023/10/22 06:00:49;;;;;;;8.75;3.13;;;;;;;;;;5017636;28;20690;-60
2023/10/22 06:03:14;;;;;;;7.78;3.20;;;;;;;;;;5002214;28;20048;-60
2023/10/22 06:05:40;;;;;;;7.90;3.00;;;;;;;;;;5005459;28;20227;-61
2023/10/22 06:08:05;;;;;;;9.95;3.42;;;;;;;;;;5007261;28;20052;-61
2023/10/22 06:10:30;;;;;;;6.43;3.30;;;;;;;;;;5001730;28;20034;-62
2023/10/22 06:12:55;;;;;;;7.88;3.05;;;;;;;;;;5004236;28;20064;-62
2023/10/22 06:15:21;;;;;;;8.60;3.00;;;;;;;;;;5009850;28;20029;-62
2023/10/22 06:17:47;;;;;;;8.90;2.95;;;;;;;;;;5007438;28;20054;-63
2023/10/22 06:20:12;;;;;;;8.13;3.00;;;;;;;;;;5000162;28;20038;-63
2023/10/22 06:22:38;;;;;;;8.38;3.10;;;;;;;;;;4988898;28;20618;-63
2023/10/22 06:25:03;;;;;;;10.32;3.10;;;;;;;;;;4988759;28;20129;-61
2023/10/22 06:27:30;;;;;;;7.97;2.95;;;;;;;;;;4962470;28;20046;-61
2023/10/22 06:29:55;;;;;;;10.45;3.03;;;;;;;;;;4991623;28;20080;-63
2023/10/22 06:32:21;;;;;;;5.60;3.17;;;;;;;;;;4991316;28;20499;-64
2023/10/22 06:34:46;;;;;;;9.93;3.47;;;;;;;;;;4968143;28;20068;-62
2023/10/22 06:37:12;;;;;;;7.68;3.60;;;;;;;;;;4977179;28;20196;-62
2023/10/22 06:39:37;;;;;;;11.67;3.60;;;;;;;;;;4976376;28;20410;-61
2023/10/22 06:42:03;;;;;;;8.23;3.63;;;;;;;;;;4969890;28;20303;-62
2023/10/22 06:44:28;;;;;;;10.70;3.90;;;;;;;;;;4995112;28;20445;-62
2023/10/22 06:46:54;;;;;;;9.15;3.92;;;;;;;;;;4969456;28;20163;-63
2023/10/22 06:49:19;;;;;;;9.35;3.65;;;;;;;;;;4994084;28;20715;-62
2023/10/22 06:51:45;;;;;;;12.45;4.93;;;;;;;;;;4989264;28;20308;-62
2023/10/22 06:54:11;;;;;;;11.82;5.13;;;;;;;;;;4974775;28;20826;-63
2023/10/22 06:56:36;;;;;;;9.45;4.93;;;;;;;;;;4967875;28;20147;-62
2023/10/22 06:59:03;;;;;;;11.27;5.05;;;;;;;;;;4956672;28;20054;-62
2023/10/22 07:01:28;;;;;;;11.50;5.72;;;;;;;;;;4957117;28;20046;-64
2023/10/22 07:03:54;;;;;;;14.73;5.68;;;;;;;;;;4952419;28;20176;-64
2023/10/22 07:06:20;;;;;;;15.30;5.95;;;;;;;;;;4991304;28;21169;-62
2023/10/22 07:08:45;;;;;;;14.98;5.72;;;;;;;;;;4984751;28;20137;-63
2023/10/22 07:11:11;;;;;;;15.48;7.00;;;;;;;;;;4985933;28;20045;-65
2023/10/22 07:13:37;;;;;;;14.23;6.13;;;;;;;;;;5007180;28;21440;-63
2023/10/22 07:16:02;;;;;;;11.27;6.07;;;;;;;;;;4967344;28;20066;-64
2023/10/22 07:18:28;;;;;;;11.40;5.75;;;;;;;;;;4979941;28;20135;-65
2023/10/22 07:20:53;;;;;;;14.82;6.57;;;;;;;;;;4988474;28;20298;-65
2023/10/22 07:23:19;;;;;;;15.93;6.82;;;;;;;;;;4993048;28;20053;-65
2023/10/22 07:25:45;;;;;;;15.07;7.07;;;;;;;;;;4993791;28;20162;-66
2023/10/22 07:28:15;;;;;;;14.63;7.03;;;;;;;;;;5029146;28;20053;-65
2023/10/22 07:30:45;;;;;;;15.48;7.10;;;;;;;;;;5006506;28;20038;-65
2023/10/22 07:33:11;;;;;;;15.70;6.45;;;;;;;;;;5028672;28;20042;-65
2023/10/22 07:35:36;;;;;;;12.68;6.43;;;;;;;;;;5013070;28;20054;-64
2023/10/22 07:38:03;;;;;;;16.08;6.50;;;;;;;;;;4991057;28;20112;-66
2023/10/22 07:40:28;;;;;;;14.25;5.70;;;;;;;;;;4993711;28;20447;-67
2023/10/22 07:42:54;;;;;;;12.13;5.60;;;;;;;;;;5008894;28;20030;-66
2023/10/22 07:45:19;;;;;;;15.43;5.90;;;;;;;;;;4997222;28;20025;-64
2023/10/22 07:47:45;;;;;;;14.57;6.30;;;;;;;;;;4981954;28;20030;-61
2023/10/22 07:50:10;;;;;;;11.85;5.93;;;;;;;;;;4969291;28;20045;-65
2023/10/22 07:52:36;;;;;;;11.43;5.90;;;;;;;;;;5011437;28;20026;-64
2023/10/22 07:55:02;;;;;;;11.32;5.50;;;;;;;;;;4992596;28;20602;-65
2023/10/22 07:57:28;;;;;;;13.98;5.70;;;;;;;;;;4970982;28;20045;-64
2023/10/22 07:59:55;;;;;;;17.17;6.43;;;;;;;;;;5007706;28;20029;-63
2023/10/22 08:02:20;;;;;;;11.70;5.28;;;;;;;;;;4994832;28;20018;-66
2023/10/22 08:04:47;;;;;;;14.55;5.20;;;;;;;;;;4972851;28;20021;-65
2023/10/22 08:07:13;;;;;;;12.48;5.63;;;;;;;;;;4996506;28;20018;-66
2023/10/22 08:09:38;;;;;;;11.85;4.80;;;;;;;;;;5000836;28;20084;-64
2023/10/22 08:12:04;;;;;;;14.32;5.22;;;;;;;;;;4997637;28;21123;-65
2023/10/22 08:14:29;;;;;;;12.68;4.35;;;;;;;;;;4994480;28;20037;-66
2023/10/22 08:16:55;;;;;;;13.95;4.25;;;;;;;;;;4991494;28;20101;-65
2023/10/22 08:19:20;;;;;;;9.10;3.60;;;;;;;;;;4955927;28;20034;-66
2023/10/22 08:21:45;;;;;;;8.43;3.85;;;;;;;;;;4968043;28;20037;-66
2023/10/22 08:24:11;;;;;;;11.25;4.28;;;;;;;;;;4975451;28;20030;-61
2023/10/22 08:26:36;;;;;;;11.70;3.83;;;;;;;;;;4977538;28;20024;-63
2023/10/22 08:29:01;;;;;;;12.02;4.10;;;;;;;;;;4950756;28;20301;-60
2023/10/22 08:31:27;;;;;;;12.45;4.15;;;;;;;;;;4977387;28;20026;-62
2023/10/22 08:34:21;;;;;;;12.73;4.35;;;;;;;;;;5013206;28;20010;-60
2023/10/22 08:37:41;;;;;;;11.45;4.15;;;;;;;;;;4973161;28;20454;-61
2023/10/22 08:40:50;;;;;;;11.40;3.50;;;;;;;;;;5005521;28;20504;-61
2023/10/22 08:43:55;;;;;;;13.38;3.95;;;;;;;;;;5008619;28;20042;-61
2023/10/22 08:50:21;;;;;;;9.18;4.03;;;;;;;;;;4993870;28;20057;-62
2023/10/22 08:53:35;;;;;;;10.35;3.45;;;;;;;;;;4993703;28;20134;-61
2023/10/22 08:56:51;;;;;;;14.90;3.90;;;;;;;;;;4967047;28;20579;-60
2023/10/22 09:00:04;;;;;;;10.85;3.80;;;;;;;;;;4997716;28;20065;-60
2023/10/22 09:06:22;;;;;;;9.18;3.50;;;;;;;;;;4987143;28;20458;-60
2023/10/22 09:09:41;;;;;;;10.18;3.90;;;;;;;;;;4985812;28;20042;-60
2023/10/22 09:12:54;;;;;;;10.15;3.60;;;;;;;;;;5013148;28;20101;-60
2023/10/22 09:16:02;;;;;;;10.48;3.53;;;;;;;;;;4970405;28;20131;-61
2023/10/22 09:19:08;;;;;;;11.50;3.30;;;;;;;;;;5002192;28;20052;-61
2023/10/22 09:22:11;;;;;;;10.13;3.38;;;;;;;;;;4986189;28;20465;-61
2023/10/22 09:31:41;;;;;;;8.60;2.83;;;;;;;;;;4985773;28;20076;-61
2023/10/22 09:34:58;;;;;;;8.37;3.30;;;;;;;;;;5017409;28;20030;-60
2023/10/22 09:38:24;;;;;;;9.85;3.00;;;;;;;;;;4971273;28;21042;-61
2023/10/22 09:41:29;;;;;;;7.63;2.90;;;;;;;;;;5007959;28;20148;-61
2023/10/22 09:44:33;;;;;;;10.38;3.22;;;;;;;;;;4982342;28;20128;-60
2023/10/22 09:53:07;;;;;;;12.63;3.78;;;;;;;;;;4967060;28;20039;-67
2023/10/22 09:55:32;;;;;;;12.48;2.92;;;;;;;;;;4959701;28;20038;-67
2023/10/22 09:57:58;;;;;;;15.02;3.28;;;;;;;;;;4960678;28;20070;-66
2023/10/22 10:00:23;;;;;;;17.40;3.40;;;;;;;;;;4961210;28;20034;-66
2023/10/22 10:02:49;;;;;;;16.03;3.80;;;;;;;;;;4963309;28;20027;-67
2023/10/22 10:05:14;;;;;;;13.55;3.50;;;;;;;;;;4959335;28;20390;-67
2023/10/22 10:07:40;;;;;;;14.45;3.80;;;;;;;;;;4978246;28;20121;-67
2023/10/22 10:12:49;;;;;;;17.13;3.75;;;;;;;;;;5494383;23;20101;-58
2023/10/22 10:16:04;;;;;;;17.42;3.90;;;;;;;;;;4993081;28;20563;-59
2023/10/22 10:19:03;;;;;;;18.88;3.85;;;;;;;;;;5004923;28;20120;-61
2023/10/22 10:22:19;;;;;;;14.02;3.78;;;;;;;;;;5016882;28;20849;-60
2023/10/22 10:25:34;;;;;;;14.60;3.83;;;;;;;;;;4983395;28;20039;-60
2023/10/22 10:32:03;;;;;;;14.00;3.13;;;;;;;;;;4977026;28;20095;-59
2023/10/22 10:35:10;;;;;;;16.15;3.17;;;;;;;;;;4972532;28;20049;-59
2023/10/22 10:38:13;;;;;;;15.82;3.53;;;;;;;;;;4972571;28;20040;-59
2023/10/22 10:41:17;;;;;;;11.02;2.63;;;;;;;;;;5000111;28;20029;-59
2023/10/22 10:44:12;;;;;;;15.45;3.70;;;;;;;;;;4985129;28;20097;-59
2023/10/22 10:47:16;;;;;;;14.90;3.83;;;;;;;;;;5004953;28;20121;-59
2023/10/22 11:05:14;;;;;;;14.38;3.17;;;;;;;;;;5000880;28;20034;-59
2023/10/22 11:08:00;;;;;;;13.52;2.92;;;;;;;;;;4995613;28;20545;-59
2023/10/22 11:17:07;;;;;;;12.68;2.90;;;;;;;;;;5056437;23;20061;-59
2023/10/22 11:23:15;;;;;;;12.68;3.28;;;;;;;;;;4998163;28;20037;-60
2023/10/22 11:28:50;;;;;;;10.68;3.63;;;;;;;;;;5028640;28;20052;-59
2023/10/22 11:31:38;;;;;;;12.73;3.10;;;;;;;;;;5003187;28;20063;-60
2023/10/22 11:34:25;;;;;;;19.85;3.80;;;;;;;;;;5013814;28;20029;-60
2023/10/22 11:37:25;;;;;;;10.32;3.05;;;;;;;;;;5030132;28;20173;-62
2023/10/22 11:40:41;;;;;;;12.57;3.33;;;;;;;;;;4969001;28;20073;-61
2023/10/22 11:43:44;;;;;;;12.20;3.15;;;;;;;;;;4979864;28;20041;-61
2023/10/22 11:46:56;;;;;;;12.80;3.45;;;;;;;;;;4972519;28;20041;-61
2023/10/22 11:50:14;;;;;;;17.73;3.85;;;;;;;;;;4993544;28;20123;-61
2023/10/22 11:56:25;;;;;;;18.40;4.10;;;;;;;;;;4989498;28;20038;-61
2023/10/22 11:59:37;;;;;;;17.58;3.83;;;;;;;;;;4955239;28;20196;-62
2023/10/22 12:02:41;;;;;;;14.43;3.47;;;;;;;;;;4989212;28;20087;-62
2023/10/22 12:05:50;;;;;;;15.65;3.60;;;;;;;;;;4987914;28;20041;-60
2023/10/22 12:09:08;;;;;;;12.43;3.70;;;;;;;;;;5005833;28;20036;-61
2023/10/22 12:12:23;;;;;;;19.25;3.92;;;;;;;;;;4982988;28;20068;-61
2023/10/22 12:15:40;;;;;;;19.80;3.85;;;;;;;;;;4990831;28;20038;-60
2023/10/22 12:22:20;;;;;;;17.45;3.65;;;;;;;;;;5007399;28;20103;-61
2023/10/22 12:25:05;;;;;;;;;;;;;;;;;;4967213;28;20116;-62
2023/10/22 12:28:24;;;;;;;16.20;4.18;;;;;;;;;;4956425;28;20562;-61
2023/10/22 12:31:52;;;;;;;15.70;4.20;;;;;;;;;;4990411;28;20037;-61
2023/10/22 12:34:34;;;;;;;;;;;;;;;;;;4982845;28;20041;-60
2023/10/22 12:37:55;;;;;;;18.83;3.83;;;;;;;;;;4976279;28;19941;-60
2023/10/22 12:41:14;;;;;;;19.90;4.40;;;;;;;;;;4972678;28;20038;-61
2023/10/22 12:44:32;;;;;;;20.20;4.10;;;;;;;;;;4979125;28;20042;-58
2023/10/22 12:47:49;;;;;;;12.52;3.70;;;;;;;;;;4989472;28;20425;-60
2023/10/22 12:51:06;;;;;;;20.85;4.20;;;;;;;;;;4988330;28;20120;-59
2023/10/22 12:54:22;;;;;;;16.38;3.88;;;;;;;;;;4990837;28;20126;-60
2023/10/22 12:57:41;;;;;;;17.15;3.92;;;;;;;;;;4976368;28;20058;-60
2023/10/22 13:01:00;;;;;;;15.95;3.88;;;;;;;;;;4968970;28;20056;-60
2023/10/22 13:04:19;;;;;;;21.55;4.03;;;;;;;;;;4974335;28;20052;-61
2023/10/22 13:07:36;;;;;;;14.23;3.60;;;;;;;;;;4983856;28;20441;-60
2023/10/22 13:14:13;;;;;;;18.38;4.22;;;;;;;;;;5002465;28;20592;-59
2023/10/22 13:17:35;;;;;;;20.88;4.45;;;;;;;;;;4977381;28;20052;-60
2023/10/22 13:20:50;;;;;;;20.27;3.97;;;;;;;;;;4968878;28;20035;-61
2023/10/22 13:24:18;;;;;;;16.63;3.80;;;;;;;;;;5005540;28;20061;-61
2023/10/22 13:27:35;;;;;;;15.77;4.63;;;;;;;;;;4991335;28;20033;-61
2023/10/22 13:30:58;;;;;;;24.02;4.25;;;;;;;;;;4982264;28;20052;-61
2023/10/22 13:34:24;;;;;;;18.80;4.03;;;;;;;;;;4995940;28;20401;-61
2023/10/22 13:37:40;;;;;;;21.80;4.20;;;;;;;;;;4990413;28;20046;-61
2023/10/22 13:40:58;;;;;;;19.40;4.43;;;;;;;;;;4991889;28;20068;-61
2023/10/22 13:44:16;;;;;;;15.85;3.83;;;;;;;;;;4961650;28;20422;-61
2023/10/22 13:47:30;;;;;;;14.13;3.47;;;;;;;;;;4994920;28;20164;-61
2023/10/22 13:50:46;;;;;;;19.50;4.15;;;;;;;;;;4994615;28;20458;-60
2023/10/22 13:54:04;;;;;;;20.33;4.68;;;;;;;;;;4991739;28;20750;-61
2023/10/22 13:57:26;;;;;;;14.90;4.28;;;;;;;;;;4965990;28;20462;-61
2023/10/22 14:00:47;;;;;;;18.67;3.95;;;;;;;;;;5009355;28;20044;-62
2023/10/22 14:04:04;;;;;;;18.48;3.38;;;;;;;;;;4981642;28;20036;-60
2023/10/22 14:07:21;;;;;;;15.40;3.72;;;;;;;;;;4992731;28;20367;-60
2023/10/22 14:10:38;;;;;;;14.85;4.03;;;;;;;;;;4975809;28;20747;-61
2023/10/22 14:14:01;;;;;;;15.45;4.30;;;;;;;;;;4961217;28;20149;-59
2023/10/22 14:17:22;;;;;;;15.35;3.78;;;;;;;;;;4971023;28;20130;-59
2023/10/22 14:20:41;;;;;;;13.82;4.35;;;;;;;;;;4975783;28;20040;-61
2023/10/22 14:23:51;;;;;;;16.87;4.17;;;;;;;;;;4995641;28;20033;-60
2023/10/22 14:26:56;;;;;;;18.90;3.92;;;;;;;;;;4989858;28;20134;-60
2023/10/22 14:30:04;;;;;;;23.23;4.88;;;;;;;;;;4978837;28;20169;-60
2023/10/22 14:33:02;;;;;;;18.67;4.13;;;;;;;;;;4978524;28;20046;-60
2023/10/22 14:36:09;;;;;;;17.23;4.03;;;;;;;;;;4990244;28;20506;-59
2023/10/22 14:39:09;;;;;;;17.33;4.05;;;;;;;;;;4985601;28;20530;-60
2023/10/22 14:42:17;;;;;;;18.73;4.50;;;;;;;;;;4972656;28;20037;-61
2023/10/22 14:45:21;;;;;;;20.52;4.63;;;;;;;;;;4990781;28;20502;-60
2023/10/22 14:48:24;;;;;;;17.80;4.30;;;;;;;;;;4955627;28;20111;-60
2023/10/22 14:51:32;;;;;;;22.15;4.45;;;;;;;;;;5005730;28;20129;-57
2023/10/22 14:54:36;;;;;;;20.02;4.25;;;;;;;;;;4988124;28;20124;-59
2023/10/22 15:00:37;;;;;;;19.83;4.70;;;;;;;;;;5001987;28;20561;-60
2023/10/22 15:03:39;;;;;;;20.27;4.47;;;;;;;;;;4949279;28;20035;-61
2023/10/22 15:06:39;;;;;;;21.88;4.43;;;;;;;;;;5001813;28;20091;-61
2023/10/22 15:09:38;;;;;;;19.08;4.20;;;;;;;;;;4972272;28;20034;-61
2023/10/22 15:16:11;;;;;;;18.58;4.40;;;;;;;;;;4974867;28;20032;-60
2023/10/22 15:19:07;;;;;;;23.95;5.32;;;;;;;;;;4998899;28;20529;-61
2023/10/22 15:22:06;;;;;;;19.20;4.32;;;;;;;;;;4990551;28;20041;-60
2023/10/22 15:25:04;;;;;;;20.63;4.70;;;;;;;;;;4974026;28;20050;-61
2023/10/22 15:28:09;;;;;;;18.67;4.35;;;;;;;;;;4973343;28;20046;-61
2023/10/22 15:31:09;;;;;;;21.50;4.57;;;;;;;;;;4995260;28;20038;-61
2023/10/22 15:34:15;;;;;;;13.60;4.22;;;;;;;;;;4990396;28;20045;-62
2023/10/22 15:37:12;;;;;;;17.48;4.53;;;;;;;;;;4984852;28;20034;-59
2023/10/22 15:40:07;;;;;;;19.63;4.30;;;;;;;;;;4982534;28;20068;-61
2023/10/22 15:43:10;;;;;;;17.90;4.35;;;;;;;;;;4986529;28;20113;-61
2023/10/22 15:46:17;;;;;;;20.13;4.72;;;;;;;;;;4985624;28;20049;-60
2023/10/22 15:49:12;;;;;;;15.52;4.07;;;;;;;;;;4974232;28;20053;-61
2023/10/22 15:52:14;;;;;;;36.00;5.72;;;;;;;;;;4968149;28;20133;-60
2023/10/22 15:55:13;;;;;;;17.58;4.53;;;;;;;;;;4979390;28;20124;-59
2023/10/22 15:58:14;;;;;;;14.52;4.70;;;;;;;;;;4998742;28;20085;-63
2023/10/22 16:01:13;;;;;;;21.13;4.13;;;;;;;;;;4990802;28;20084;-59
2023/10/22 16:07:35;;;;;;;16.90;4.60;;;;;;;;;;4982305;28;20415;-60
2023/10/22 16:10:29;;;;;;;21.48;4.78;;;;;;;;;;4986284;28;20042;-60
2023/10/22 16:13:34;;;;;;;18.67;4.40;;;;;;;;;;4984251;28;20041;-61
2023/10/22 16:16:35;;;;;;;14.25;4.25;;;;;;;;;;4980385;28;20505;-61
2023/10/22 16:19:44;;;;;;;13.82;4.10;;;;;;;;;;4988171;28;20049;-61
2023/10/22 16:22:45;;;;;;;14.93;4.78;;;;;;;;;;4992816;28;20125;-61
2023/10/22 16:25:47;;;;;;;17.98;4.55;;;;;;;;;;4979177;28;20901;-60
2023/10/22 16:28:25;;;;;;;;;;;;;;;;;;4979903;28;20065;-60
2023/10/22 16:31:22;;;;;;;18.13;4.65;;;;;;;;;;4981621;28;19914;-60
2023/10/22 16:34:20;;;;;;;19.25;4.43;;;;;;;;;;4985660;28;20731;-61
2023/10/22 16:37:23;;;;;;;16.30;4.72;;;;;;;;;;4983466;28;20056;-59
2023/10/22 16:40:17;;;;;;;15.73;4.68;;;;;;;;;;4981193;28;20052;-60
2023/10/22 16:43:14;;;;;;;19.55;5.15;;;;;;;;;;4989905;28;20042;-62
2023/10/22 16:46:13;;;;;;;17.38;4.40;;;;;;;;;;4994169;28;20037;-61
2023/10/22 16:49:13;;;;;;;15.95;4.80;;;;;;;;;;4992440;28;20033;-63
2023/10/22 16:52:15;;;;;;;18.90;5.47;;;;;;;;;;4968126;28;20066;-62
2023/10/22 16:55:15;;;;;;;14.95;4.88;;;;;;;;;;4983637;28;20130;-61
2023/10/22 16:58:17;;;;;;;16.75;4.85;;;;;;;;;;4982089;28;20042;-60
2023/10/22 17:01:16;;;;;;;17.75;5.13;;;;;;;;;;4988068;28;20041;-60
2023/10/22 17:04:07;;;;;;;17.95;5.18;;;;;;;;;;4970831;28;20593;-60
2023/10/22 17:07:05;;;;;;;21.73;6.38;;;;;;;;;;4969852;28;20561;-61
2023/10/22 17:10:05;;;;;;;16.08;5.15;;;;;;;;;;4997401;28;20044;-59
2023/10/22 17:13:03;;;;;;;21.23;5.60;;;;;;;;;;4991033;28;20084;-61
2023/10/22 17:15:56;;;;;;;21.02;6.75;;;;;;;;;;4992439;28;20033;-62